createdAt,value
2018-06-15T00:00:03.371Z,14.80
2018-06-15T00:02:33.333Z,14.70
2018-06-15T00:05:01.994Z,14.60
2018-06-15T00:10:00.020Z,14.70
2018-06-15T00:12:28.698Z,14.80
2018-06-15T00:14:57.210Z,14.70
2018-06-15T00:17:25.732Z,14.80
2018-06-15T00:19:55.265Z,14.80
2018-06-15T00:22:23.897Z,14.80
2018-06-15T00:24:52.417Z,14.80
2018-06-15T00:27:20.913Z,14.90
2018-06-15T00:29:49.369Z,14.90
2018-06-15T00:32:17.898Z,14.80
2018-06-15T00:34:46.347Z,14.60
2018-06-15T00:37:14.872Z,14.70
2018-06-15T00:39:43.348Z,14.70
2018-06-15T00:42:11.798Z,14.70
2018-06-15T00:44:40.464Z,14.70
2018-06-15T00:47:08.927Z,14.70
2018-06-15T00:49:37.577Z,14.70
2018-06-15T00:52:06.379Z,14.70
2018-06-15T00:54:34.829Z,14.70
2018-06-15T00:57:14.466Z,14.70
2018-06-15T00:59:42.996Z,14.70
2018-06-15T01:02:11.470Z,14.70
2018-06-15T01:04:39.957Z,14.60
2018-06-15T01:07:08.431Z,14.70
2018-06-15T01:09:36.870Z,14.70
2018-06-15T01:12:06.052Z,14.50
2018-06-15T01:14:35.625Z,14.40
2018-06-15T01:19:33.158Z,14.50
2018-06-15T01:22:01.665Z,14.60
2018-06-15T01:24:30.210Z,14.60
2018-06-15T01:26:58.682Z,14.50
2018-06-15T01:29:27.221Z,14.50
2018-06-15T01:31:55.718Z,14.50
2018-06-15T01:34:24.328Z,14.40
2018-06-15T01:36:52.815Z,14.50
2018-06-15T01:39:21.345Z,14.40
2018-06-15T01:41:49.781Z,14.30
2018-06-15T01:44:18.274Z,14.30
2018-06-15T01:46:46.741Z,14.30
2018-06-15T01:49:15.223Z,14.30
2018-06-15T01:51:43.698Z,14.40
2018-06-15T01:54:12.167Z,14.30
2018-06-15T01:56:40.615Z,14.20
2018-06-15T02:01:37.455Z,14.10
2018-06-15T02:04:05.944Z,14.20
2018-06-15T02:06:34.613Z,14.20
2018-06-15T02:09:03.237Z,14.30
2018-06-15T02:11:31.848Z,14.30
2018-06-15T02:14:00.367Z,14.30
2018-06-15T02:16:28.891Z,14.20
2018-06-15T02:18:57.478Z,14.10
2018-06-15T02:21:25.910Z,14.10
2018-06-15T02:23:54.851Z,14.10
2018-06-15T02:26:23.312Z,14.10
2018-06-15T02:28:51.904Z,14.10
2018-06-15T02:31:20.402Z,14.10
2018-06-15T02:33:49.252Z,14.20
2018-06-15T02:36:17.715Z,14.20
2018-06-15T02:38:46.226Z,14.20
2018-06-15T02:43:43.701Z,14.20
2018-06-15T02:46:12.188Z,14.30
2018-06-15T02:48:40.887Z,14.20
2018-06-15T02:51:09.601Z,14.20
2018-06-15T02:53:38.098Z,14.10
2018-06-15T02:56:06.645Z,14.10
2018-06-15T02:58:35.205Z,14.10
2018-06-15T03:01:03.673Z,14.00
2018-06-15T03:03:32.848Z,14.00
2018-06-15T03:06:01.475Z,14.10
2018-06-15T03:08:29.982Z,14.00
2018-06-15T03:10:58.464Z,13.80
2018-06-15T03:13:26.926Z,13.90
2018-06-15T03:15:55.474Z,13.90
2018-06-15T03:20:52.330Z,14.00
2018-06-15T03:23:20.791Z,14.00
2018-06-15T03:25:49.220Z,14.00
2018-06-15T03:28:17.864Z,14.00
2018-06-15T03:30:46.363Z,14.00
2018-06-15T03:35:42.994Z,13.90
2018-06-15T03:38:11.436Z,13.80
2018-06-15T03:40:39.893Z,13.80
2018-06-15T03:43:08.327Z,13.90
2018-06-15T03:45:36.994Z,13.80
2018-06-15T03:48:05.710Z,13.80
2018-06-15T03:50:34.648Z,13.80
2018-06-15T03:53:03.161Z,13.80
2018-06-15T03:55:31.687Z,13.90
2018-06-15T03:58:00.358Z,13.90
2018-06-15T04:00:28.816Z,13.90
2018-06-15T04:02:57.396Z,13.90
2018-06-15T04:05:26.314Z,13.90
2018-06-15T04:10:24.924Z,13.80
2018-06-15T04:12:53.517Z,13.80
2018-06-15T04:15:21.953Z,13.80
2018-06-15T04:17:55.705Z,13.80
2018-06-15T04:20:24.615Z,13.80
2018-06-15T04:22:53.496Z,13.90
2018-06-15T04:25:22.076Z,13.90
2018-06-15T04:27:50.579Z,13.90
2018-06-15T04:30:19.328Z,13.80
2018-06-15T04:32:47.778Z,13.80
2018-06-15T04:35:16.183Z,13.70
2018-06-15T04:37:44.981Z,13.70
2018-06-15T04:40:13.649Z,13.70
2018-06-15T04:45:10.409Z,13.90
2018-06-15T04:47:39.348Z,14.10
2018-06-15T04:50:09.227Z,14.20
2018-06-15T04:52:37.914Z,14.20
2018-06-15T04:55:06.998Z,14.30
2018-06-15T05:00:03.964Z,14.30
2018-06-15T05:02:33.422Z,14.30
2018-06-15T05:05:02.071Z,14.30
2018-06-15T05:07:30.529Z,14.30
2018-06-15T05:09:59.028Z,14.30
2018-06-15T05:12:27.516Z,14.40
2018-06-15T05:14:56.171Z,14.50
2018-06-15T05:17:24.896Z,14.50
2018-06-15T05:19:53.564Z,14.60
2018-06-15T05:22:22.106Z,14.60
2018-06-15T05:24:50.621Z,14.80
2018-06-15T05:27:19.106Z,14.80
2018-06-15T05:29:47.544Z,14.70
2018-06-15T05:32:16.118Z,14.70
2018-06-15T05:34:44.638Z,14.70
2018-06-15T05:37:13.109Z,14.70
2018-06-15T05:39:41.551Z,14.80
2018-06-15T05:42:10.056Z,14.80
2018-06-15T05:44:38.561Z,14.80
2018-06-15T05:47:07.050Z,15.00
2018-06-15T05:49:35.802Z,15.10
2018-06-15T05:52:04.532Z,15.20
2018-06-15T05:54:33.048Z,15.20
2018-06-15T05:57:01.597Z,15.30
2018-06-15T05:59:30.057Z,15.40
2018-06-15T06:01:58.501Z,15.50
2018-06-15T06:04:27.054Z,15.50
2018-06-15T06:06:55.592Z,15.60
2018-06-15T06:11:52.468Z,15.70
2018-06-15T06:14:20.893Z,15.80
2018-06-15T06:16:49.345Z,15.80
2018-06-15T06:19:17.999Z,15.80
2018-06-15T06:21:46.468Z,15.80
2018-06-15T06:26:43.662Z,16.00
2018-06-15T06:29:12.322Z,16.00
2018-06-15T06:34:09.260Z,16.20
2018-06-15T06:36:37.767Z,16.30
2018-06-15T06:39:09.514Z,16.50
2018-06-15T06:41:38.078Z,16.70
2018-06-15T06:44:06.610Z,16.80
2018-06-15T06:46:35.099Z,16.90
2018-06-15T06:49:03.650Z,17.00
2018-06-15T06:51:32.104Z,16.90
2018-06-15T06:54:00.608Z,16.90
2018-06-15T06:58:57.330Z,16.80
2018-06-15T07:01:25.923Z,16.80
2018-06-15T07:03:55.135Z,16.90
2018-06-15T07:06:23.700Z,17.00
2018-06-15T07:08:52.186Z,17.20
2018-06-15T07:11:20.629Z,17.10
2018-06-15T07:13:49.121Z,17.10
2018-06-15T07:16:17.601Z,17.10
2018-06-15T07:18:46.109Z,17.30
2018-06-15T07:21:14.603Z,17.40
2018-06-15T07:23:43.082Z,17.50
2018-06-15T07:26:11.538Z,17.50
2018-06-15T07:28:40.122Z,17.50
2018-06-15T07:31:08.583Z,17.50
2018-06-15T07:33:37.350Z,17.40
2018-06-15T07:36:05.823Z,17.30
2018-06-15T07:38:34.407Z,17.40
2018-06-15T07:41:02.908Z,17.50
2018-06-15T07:43:31.444Z,17.60
2018-06-15T07:45:59.958Z,17.80
2018-06-15T07:48:28.403Z,17.90
2018-06-15T07:50:56.891Z,17.80
2018-06-15T07:53:25.419Z,17.80
2018-06-15T07:55:54.051Z,17.80
2018-06-15T07:58:22.543Z,18.00
2018-06-15T08:03:19.157Z,18.50
2018-06-15T08:05:47.620Z,18.60
2018-06-15T08:08:16.267Z,18.50
2018-06-15T08:13:12.920Z,18.10
2018-06-15T08:15:41.330Z,18.20
2018-06-15T08:18:09.837Z,18.50
2018-06-15T08:20:38.337Z,18.40
2018-06-15T08:23:06.842Z,18.50
2018-06-15T08:25:35.356Z,18.70
2018-06-15T08:28:03.911Z,19.20
2018-06-15T08:30:32.409Z,19.30
2018-06-15T08:33:00.863Z,19.30
2018-06-15T08:37:57.473Z,19.10
2018-06-15T08:40:25.924Z,19.40
2018-06-15T08:42:54.416Z,19.40
2018-06-15T08:45:22.905Z,19.40
2018-06-15T08:47:51.411Z,19.50
2018-06-15T08:50:19.865Z,20.10
2018-06-15T08:52:48.348Z,20.60
2018-06-15T08:55:16.795Z,20.60
2018-06-15T08:57:45.254Z,21.00
2018-06-15T09:02:41.946Z,21.20
2018-06-15T09:05:10.440Z,21.30
2018-06-15T09:07:38.914Z,21.40
2018-06-15T09:10:07.451Z,21.50
2018-06-15T09:15:04.190Z,21.10
2018-06-15T09:17:32.657Z,20.60
2018-06-15T09:20:01.101Z,20.40
2018-06-15T09:22:29.627Z,20.70
2018-06-15T09:24:58.070Z,21.40
2018-06-15T09:27:26.581Z,21.90
2018-06-15T09:29:55.155Z,21.50
2018-06-15T09:32:23.586Z,21.10
2018-06-15T09:37:20.273Z,20.50
2018-06-15T09:39:49.514Z,20.30
2018-06-15T09:42:17.968Z,20.10
2018-06-15T09:44:46.486Z,19.90
2018-06-15T09:47:14.953Z,19.80
2018-06-15T09:49:43.485Z,19.80
2018-06-15T09:52:11.982Z,19.80
2018-06-15T09:54:40.486Z,19.90
2018-06-15T09:57:09.138Z,20.30
2018-06-15T09:59:37.595Z,20.60
2018-06-15T10:02:06.047Z,20.80
2018-06-15T10:04:34.541Z,21.60
2018-06-15T10:07:03.018Z,22.00
2018-06-15T10:09:31.546Z,22.30
2018-06-15T10:12:00.043Z,22.40
2018-06-15T10:14:28.478Z,22.60
2018-06-15T10:18:37.207Z,23.10
2018-06-15T10:21:05.727Z,23.30
2018-06-15T10:23:34.231Z,23.50
2018-06-15T10:26:02.767Z,23.60
2018-06-15T10:28:31.169Z,24.00
2018-06-15T10:31:06.340Z,22.30
2018-06-15T10:33:34.808Z,21.60
2018-06-15T10:36:03.351Z,21.20
2018-06-15T10:38:31.873Z,21.10
2018-06-15T10:41:00.369Z,21.10
2018-06-15T10:43:28.809Z,20.90
2018-06-15T10:45:57.242Z,21.00
2018-06-15T10:50:54.116Z,20.80
2018-06-15T10:53:23.058Z,20.70
2018-06-15T10:55:51.641Z,20.40
2018-06-15T10:58:20.145Z,20.30
2018-06-15T11:00:48.625Z,20.10
2018-06-15T11:03:17.155Z,20.10
2018-06-15T11:05:45.663Z,20.10
2018-06-15T11:08:14.182Z,20.10
2018-06-15T11:13:10.858Z,20.00
2018-06-15T11:15:39.345Z,20.00
2018-06-15T11:18:07.789Z,20.20
2018-06-15T11:20:36.263Z,20.10
2018-06-15T11:23:05.450Z,20.10
2018-06-15T11:25:34.771Z,20.20
2018-06-15T11:28:04.881Z,20.20
2018-06-15T11:33:01.599Z,20.10
2018-06-15T11:35:30.110Z,20.20
2018-06-15T11:37:58.632Z,20.20
2018-06-15T11:40:27.170Z,20.20
2018-06-15T11:42:55.680Z,20.20
2018-06-15T11:45:24.194Z,20.20
2018-06-15T11:47:52.880Z,20.30
2018-06-15T11:50:21.486Z,20.40
2018-06-15T11:52:50.723Z,20.40
2018-06-15T11:55:19.271Z,20.50
2018-06-15T11:57:47.728Z,20.70
2018-06-15T12:00:16.146Z,20.60
2018-06-15T12:02:44.613Z,20.50
2018-06-15T12:05:13.208Z,20.30
2018-06-15T12:07:41.707Z,20.20
2018-06-15T12:10:10.177Z,20.30
2018-06-15T12:12:38.634Z,20.30
2018-06-15T12:15:07.113Z,20.30
2018-06-15T12:17:35.642Z,20.50
2018-06-15T12:20:04.235Z,20.70
2018-06-15T12:22:32.705Z,20.70
2018-06-15T12:27:29.369Z,20.60
2018-06-15T12:29:57.963Z,20.70
2018-06-15T12:32:26.486Z,20.70
2018-06-15T12:34:54.955Z,20.80
2018-06-15T12:37:23.557Z,20.80
2018-06-15T12:39:52.097Z,20.90
2018-06-15T12:42:20.686Z,20.90
2018-06-15T12:44:49.161Z,21.10
2018-06-15T12:47:17.720Z,21.00
2018-06-15T12:49:46.558Z,20.80
2018-06-15T12:52:15.121Z,20.80
2018-06-15T12:54:43.648Z,20.60
2018-06-15T12:57:12.210Z,20.60
2018-06-15T12:59:40.714Z,20.60
2018-06-15T13:02:09.139Z,20.50
2018-06-15T13:04:37.612Z,20.60
2018-06-15T13:07:06.150Z,20.60
2018-06-15T13:12:04.076Z,20.70
2018-06-15T13:14:32.558Z,20.70
2018-06-15T13:17:01.030Z,20.70
2018-06-15T13:19:29.570Z,20.80
2018-06-15T13:21:58.677Z,20.90
2018-06-15T13:24:35.007Z,21.00
2018-06-15T13:27:03.989Z,21.00
2018-06-15T13:29:32.659Z,20.90
2018-06-15T13:32:01.885Z,20.90
2018-06-15T13:34:30.403Z,20.90
2018-06-15T13:36:58.878Z,20.90
2018-06-15T13:39:27.616Z,20.80
2018-06-15T13:41:56.235Z,20.70
2018-06-15T13:44:25.422Z,20.70
2018-06-15T13:46:54.623Z,20.80
2018-06-15T13:49:23.295Z,20.90
2018-06-15T13:51:51.847Z,20.90
2018-06-15T13:54:20.402Z,21.00
2018-06-15T13:56:48.867Z,21.00
2018-06-15T13:59:17.378Z,20.90
2018-06-15T14:04:14.593Z,20.90
2018-06-15T14:06:43.127Z,20.80
2018-06-15T14:09:11.719Z,20.80
2018-06-15T14:11:40.352Z,20.80
2018-06-15T14:14:08.769Z,20.80
2018-06-15T14:16:37.411Z,20.90
2018-06-15T14:19:06.128Z,20.90
2018-06-15T14:21:34.814Z,20.80
2018-06-15T14:24:03.539Z,20.90
2018-06-15T14:26:32.114Z,21.00
2018-06-15T14:29:00.638Z,21.20
2018-06-15T14:31:29.041Z,21.30
2018-06-15T14:33:58.488Z,21.20
2018-06-15T14:36:26.949Z,21.10
2018-06-15T14:38:55.413Z,21.10
2018-06-15T14:41:23.950Z,21.20
2018-06-15T14:43:52.480Z,21.20
2018-06-15T14:46:21.126Z,21.20
2018-06-15T14:48:49.626Z,21.00
2018-06-15T14:51:18.093Z,20.90
2018-06-15T14:53:46.564Z,20.90
2018-06-15T14:56:15.095Z,20.90
2018-06-15T15:01:12.037Z,21.00
2018-06-15T15:03:40.546Z,21.00
2018-06-15T15:08:37.843Z,20.90
2018-06-15T15:11:06.430Z,21.10
2018-06-15T15:13:35.588Z,21.20
2018-06-15T15:16:04.113Z,21.10
2018-06-15T15:18:32.623Z,21.00
2018-06-15T15:21:01.088Z,21.00
2018-06-15T15:23:29.586Z,20.90
2018-06-15T15:25:58.064Z,20.90
2018-06-15T15:28:26.738Z,20.90
2018-06-15T15:30:55.210Z,20.80
2018-06-15T15:33:23.705Z,20.80
2018-06-15T15:35:52.174Z,20.90
2018-06-15T15:38:20.793Z,20.90
2018-06-15T15:40:49.292Z,20.80
2018-06-15T15:43:17.855Z,20.80
2018-06-15T15:45:46.520Z,20.80
2018-06-15T15:48:16.224Z,20.90
2018-06-15T15:50:44.959Z,20.90
2018-06-15T15:55:44.654Z,20.90
2018-06-15T15:58:13.145Z,20.90
2018-06-15T16:00:41.941Z,21.00
2018-06-15T16:03:10.566Z,21.10
2018-06-15T16:05:39.233Z,21.00
2018-06-15T16:08:07.729Z,21.10
2018-06-15T16:10:36.457Z,21.30
2018-06-15T16:13:04.919Z,21.20
2018-06-15T16:15:33.483Z,21.10
2018-06-15T16:18:01.988Z,21.10
2018-06-15T16:20:30.492Z,21.00
2018-06-15T16:22:59.338Z,21.10
2018-06-15T16:25:27.912Z,21.10
2018-06-15T16:27:56.756Z,21.10
2018-06-15T16:30:25.667Z,21.00
2018-06-15T16:32:54.445Z,21.00
2018-06-15T16:37:52.741Z,21.10
2018-06-15T16:40:21.788Z,21.00
2018-06-15T16:42:50.319Z,21.00
2018-06-15T16:45:18.895Z,21.00
2018-06-15T16:50:16.445Z,20.90
2018-06-15T16:52:45.092Z,20.90
2018-06-15T16:55:13.636Z,20.90
2018-06-15T16:57:42.325Z,20.90
2018-06-15T17:02:39.083Z,20.90
2018-06-15T17:07:36.590Z,20.90
2018-06-15T17:10:05.095Z,20.90
2018-06-15T17:12:33.591Z,20.90
2018-06-15T17:15:02.240Z,20.90
2018-06-15T17:17:30.974Z,20.90
2018-06-15T17:19:59.704Z,20.90
2018-06-15T17:22:28.323Z,20.90
2018-06-15T17:24:57.844Z,20.80
2018-06-15T17:27:26.810Z,20.80
2018-06-15T17:29:55.849Z,20.80
2018-06-15T17:32:24.576Z,20.80
2018-06-15T17:34:53.801Z,20.80
2018-06-15T17:37:22.361Z,20.70
2018-06-15T17:39:51.053Z,20.70
2018-06-15T17:42:19.846Z,20.80
2018-06-15T17:44:48.479Z,20.80
2018-06-15T17:47:17.392Z,20.70
2018-06-15T17:49:46.279Z,20.70
2018-06-15T17:52:15.044Z,20.70
2018-06-15T17:57:12.150Z,20.70
2018-06-15T17:59:40.970Z,20.70
2018-06-15T18:02:09.814Z,20.70
2018-06-15T18:04:38.388Z,20.60
2018-06-15T18:07:07.423Z,20.60
2018-06-15T18:09:36.031Z,20.50
2018-06-15T18:14:33.052Z,20.40
2018-06-15T18:17:01.594Z,20.40
2018-06-15T18:19:31.060Z,20.30
2018-06-15T18:21:59.621Z,20.30
2018-06-15T18:24:28.152Z,20.20
2018-06-15T18:29:24.900Z,20.10
2018-06-15T18:31:54.667Z,20.10
2018-06-15T18:34:23.223Z,20.10
2018-06-15T18:36:51.922Z,20.20
2018-06-15T18:39:20.856Z,20.20
2018-06-15T18:41:49.518Z,20.20
2018-06-15T18:44:18.610Z,20.30
2018-06-15T18:46:47.259Z,20.20
2018-06-15T18:49:15.976Z,20.10
2018-06-15T18:51:44.523Z,20.00
2018-06-15T18:56:42.774Z,19.90
2018-06-15T18:59:11.634Z,19.70
2018-06-15T19:01:40.131Z,19.60
2018-06-15T19:04:08.706Z,19.60
2018-06-15T19:06:37.427Z,19.60
2018-06-15T19:09:08.762Z,19.60
2018-06-15T19:11:37.972Z,19.60
2018-06-15T19:14:07.056Z,19.60
2018-06-15T19:16:36.011Z,19.60
2018-06-15T19:19:04.980Z,19.40
2018-06-15T19:21:33.601Z,19.20
2018-06-15T19:24:02.506Z,19.10
2018-06-15T19:26:31.288Z,19.00
2018-06-15T19:38:20.519Z,18.60
2018-06-15T19:40:49.063Z,18.50
2018-06-15T19:43:17.769Z,18.50
2018-06-15T19:45:46.526Z,18.50
2018-06-15T19:50:43.617Z,18.60
2018-06-15T19:53:12.151Z,18.60
2018-06-15T19:55:40.898Z,18.70
2018-06-15T19:58:09.392Z,18.60
2018-06-15T20:00:38.341Z,18.50
2018-06-15T20:03:07.050Z,18.50
2018-06-15T20:05:35.587Z,18.40
2018-06-15T20:10:32.369Z,18.30
2018-06-15T20:13:00.932Z,18.20
2018-06-15T20:15:29.461Z,18.20
2018-06-15T20:17:57.978Z,18.20
2018-06-15T20:20:26.876Z,18.10
2018-06-15T20:22:55.422Z,18.10
2018-06-15T20:25:23.994Z,18.00
2018-06-15T20:27:52.497Z,18.00
2018-06-15T20:30:21.198Z,18.00
2018-06-15T20:32:49.799Z,18.00
2018-06-15T20:35:18.302Z,17.90
2018-06-15T20:37:46.740Z,17.90
2018-06-15T20:40:15.273Z,17.90
2018-06-15T20:42:43.734Z,17.90
2018-06-15T20:45:12.292Z,17.80
2018-06-15T20:47:40.984Z,17.70
2018-06-15T20:50:09.784Z,17.80
2018-06-15T20:52:38.305Z,17.80
2018-06-15T20:55:07.120Z,17.70
2018-06-15T20:57:35.586Z,17.70
2018-06-15T21:00:04.756Z,17.70
2018-06-15T21:02:33.238Z,17.60
2018-06-15T21:05:01.730Z,17.60
2018-06-15T21:07:30.355Z,17.50
2018-06-15T21:09:58.869Z,17.50
2018-06-15T21:12:27.459Z,17.60
2018-06-15T21:14:55.990Z,17.60
2018-06-15T21:17:24.685Z,17.70
2018-06-15T21:19:53.348Z,17.60
2018-06-15T21:22:21.824Z,17.60
2018-06-15T21:24:51.381Z,17.60
2018-06-15T21:27:19.928Z,17.50
2018-06-15T21:29:48.443Z,17.50
2018-06-15T21:34:45.533Z,17.60
2018-06-15T21:37:14.207Z,17.60
2018-06-15T21:39:42.717Z,17.50
2018-06-15T21:42:11.395Z,17.50
2018-06-15T21:44:39.863Z,17.60
2018-06-15T21:47:08.388Z,17.70
2018-06-15T21:49:37.083Z,17.80
2018-06-15T21:52:05.803Z,17.90
2018-06-15T21:54:34.590Z,17.80
2018-06-15T21:57:03.133Z,17.70
2018-06-15T21:59:31.746Z,17.70
2018-06-15T22:02:00.223Z,17.80
2018-06-15T22:04:28.827Z,17.70
2018-06-15T22:06:57.430Z,17.50
2018-06-15T22:09:26.023Z,17.60
2018-06-15T22:11:54.808Z,17.50
2018-06-15T22:14:23.421Z,17.40
2018-06-15T22:16:52.940Z,17.50
2018-06-15T22:19:22.802Z,17.50
2018-06-15T22:21:52.684Z,17.40
2018-06-15T22:24:22.105Z,17.40
2018-06-15T22:26:51.319Z,17.30
2018-06-15T22:29:19.867Z,17.30
2018-06-15T22:31:48.770Z,17.40
2018-06-15T22:34:17.300Z,17.30
2018-06-15T22:36:45.836Z,17.20
2018-06-15T22:39:15.583Z,17.20
2018-06-15T22:41:44.247Z,17.20
2018-06-15T22:44:13.505Z,17.20
2018-06-15T22:46:42.680Z,17.10
2018-06-15T22:49:11.783Z,17.10
2018-06-15T22:51:41.140Z,17.10
2018-06-15T22:54:10.213Z,17.20
2018-06-15T22:56:38.878Z,17.20
2018-06-15T23:01:35.538Z,17.20
2018-06-15T23:04:04.050Z,17.20
2018-06-15T23:06:32.634Z,17.10
2018-06-15T23:09:01.161Z,17.20
2018-06-15T23:11:29.653Z,17.10
2018-06-15T23:13:58.144Z,17.20
2018-06-15T23:16:26.810Z,17.20
2018-06-15T23:18:55.363Z,17.10
2018-06-15T23:21:23.862Z,17.10
2018-06-15T23:23:52.323Z,17.10
2018-06-15T23:26:20.818Z,17.10
2018-06-15T23:28:49.634Z,17.10
2018-06-15T23:31:18.050Z,17.10
2018-06-15T23:33:46.849Z,17.00
2018-06-15T23:36:15.337Z,17.00
2018-06-15T23:38:44.131Z,16.90
2018-06-15T23:41:12.643Z,16.90
2018-06-15T23:43:41.387Z,17.00
2018-06-15T23:46:09.887Z,17.00
2018-06-15T23:48:38.571Z,17.00
2018-06-15T23:51:07.218Z,17.00
2018-06-15T23:53:36.428Z,16.90
2018-06-15T23:56:05.583Z,16.90
2018-06-15T23:58:34.727Z,17.00
